Kezdőlap
METAR-TAF:

METAR-TAF

Repülőterek :

Anoka County-Blaine Airport (Janes Field)

Minneapolis-Blaine, Minnesota, Amerikai Egyesült Államok

földrajzi szélesség: 45-09N, földrajzi hosszúság: 093-13W, magasság: 278 m

Jelenlegi meteorológiai megfigyelések

A jelentés 29 perccel ezelõtt készült, 08:15 UTC
Nyugati szél 4 kt
Hőmérséklet 20°C
Páratartalom 88%
Légköri nyomás 1010 hPa
Látótávolság: 16.1 km
Derült ég

METAR: KANE 100815Z AUTO 28004KT 10SM CLR 20/18 A2982 RMK AO2

Idő: 03:44 (08:44 UTC)


TAF: hiányzik

Meteorológiai megfigyelések és előrejelzések több, mint 4000 repülőtéren (METAR és TAF jelentéseket).

A térképen piros és sárga pontok jelzik az elérhető meteorológiai állomásokat.

Mozgassa az egeret a pont fölött, hogy megjelenjen az állomás neve.

Azután kattintson az időjárási megfigyelések és előrejelzések megtekintéséhez.

A térkép megváltoztatása: kattintson a fekete keresztel jelölt zöld gombra ráközelítéshez, a vonallal jelölt zöld gombra távolításhoz, vagy a zöld nyilakra a szomszédos térképek eléréséhez.


METAR-TAF: